Terminal Aerodrome Forecast
Issued by NWS

Home | Current Version | Previous Version | Text Only | Print | Product List | Glossary On
Versions: 1 2 3 4 5 6 7 8 9 10 11 12 13
145
FTUS42 KTBW 281126
TAFPIE
TAF
KPIE 281126Z 2812/2912 16005KT P6SM FEW025 BKN250
     FM281400 23008KT P6SM FEW030 BKN250
     FM281900 26010KT P6SM SCT040 BKN250
     FM290200 24004KT P6SM SCT250=

USA.gov is the U.S. government's official web portal to all federal, state and local government web resources and services.